createdAt,value
2022-07-30T00:00:30.761Z,19.57
2022-07-30T00:02:56.561Z,19.53
2022-07-30T00:05:22.514Z,19.52
2022-07-30T00:07:48.414Z,19.51
2022-07-30T00:10:14.468Z,19.47
2022-07-30T00:12:40.395Z,19.36
2022-07-30T00:15:07.081Z,19.36
2022-07-30T00:17:32.982Z,19.36
2022-07-30T00:19:58.981Z,19.29
2022-07-30T00:22:25.216Z,19.22
2022-07-30T00:24:50.999Z,19.09
2022-07-30T00:27:16.872Z,18.86
2022-07-30T00:29:44.926Z,18.71
2022-07-30T00:32:11.344Z,18.54
2022-07-30T00:34:37.199Z,18.48
2022-07-30T00:37:03.449Z,18.41
2022-07-30T00:39:29.925Z,18.38
2022-07-30T00:41:58.728Z,18.31
2022-07-30T00:44:25.095Z,18.44
2022-07-30T00:46:51.394Z,18.40
2022-07-30T00:49:17.390Z,18.29
2022-07-30T00:51:43.447Z,18.32
2022-07-30T00:54:09.460Z,18.36
2022-07-30T00:56:35.346Z,18.34
2022-07-30T00:59:01.177Z,18.33
2022-07-30T01:01:27.115Z,18.32
2022-07-30T01:03:53.029Z,18.21
2022-07-30T01:06:18.934Z,18.15
2022-07-30T01:08:44.733Z,18.24
2022-07-30T01:11:11.247Z,18.30
2022-07-30T01:13:37.457Z,18.34
2022-07-30T01:16:03.977Z,18.27
2022-07-30T01:18:50.994Z,18.30
2022-07-30T01:21:23.296Z,18.39
2022-07-30T01:23:52.834Z,18.31
2022-07-30T01:26:21.509Z,18.31
2022-07-30T01:28:54.113Z,18.30
2022-07-30T01:31:21.140Z,18.30
2022-07-30T01:33:48.825Z,18.28
2022-07-30T01:36:16.627Z,18.09
2022-07-30T01:38:46.391Z,17.92
2022-07-30T01:41:14.371Z,17.98
2022-07-30T01:43:41.167Z,18.05
2022-07-30T01:46:09.772Z,18.08
2022-07-30T01:48:41.712Z,18.06
2022-07-30T01:51:09.305Z,18.07
2022-07-30T01:53:37.803Z,18.18
2022-07-30T01:56:04.945Z,18.14
2022-07-30T01:58:34.850Z,18.11
2022-07-30T02:01:00.920Z,18.30
2022-07-30T02:03:28.865Z,18.10
2022-07-30T02:06:07.205Z,18.05
2022-07-30T02:08:40.994Z,18.02
2022-07-30T02:11:35.930Z,18.10
2022-07-30T02:14:04.811Z,18.10
2022-07-30T02:16:35.185Z,18.08
2022-07-30T02:19:13.232Z,18.13
2022-07-30T02:21:50.577Z,17.95
2022-07-30T02:24:21.290Z,17.70
2022-07-30T02:26:51.358Z,17.50
2022-07-30T02:29:19.400Z,17.53
2022-07-30T02:31:45.906Z,17.47
2022-07-30T02:34:13.620Z,17.26
2022-07-30T02:36:42.524Z,17.23
2022-07-30T02:39:09.574Z,17.40
2022-07-30T02:41:39.389Z,17.46
2022-07-30T02:44:05.955Z,17.26
2022-07-30T02:46:32.144Z,17.17
2022-07-30T02:48:58.632Z,17.27
2022-07-30T02:51:27.123Z,17.29
2022-07-30T02:53:54.868Z,17.19
2022-07-30T02:56:22.026Z,17.04
2022-07-30T02:58:50.361Z,17.14
2022-07-30T03:01:18.606Z,17.21
2022-07-30T03:03:45.818Z,17.21
2022-07-30T03:06:14.595Z,17.27
2022-07-30T03:08:44.540Z,17.33
2022-07-30T03:11:12.389Z,17.42
2022-07-30T03:13:38.624Z,17.37
2022-07-30T03:16:08.655Z,17.31
2022-07-30T03:18:36.116Z,17.39
2022-07-30T03:21:03.160Z,17.32
2022-07-30T03:23:34.064Z,17.41
2022-07-30T03:26:02.324Z,17.46
2022-07-30T03:28:32.314Z,17.53
2022-07-30T03:30:59.000Z,17.66
2022-07-30T03:33:25.272Z,17.73
2022-07-30T03:36:05.158Z,17.76
2022-07-30T03:38:31.531Z,17.72
2022-07-30T03:40:58.370Z,17.73
2022-07-30T03:43:33.358Z,17.68
2022-07-30T03:46:04.432Z,17.65
2022-07-30T03:48:33.659Z,17.61
2022-07-30T03:51:02.368Z,17.49
2022-07-30T03:53:28.811Z,17.37
2022-07-30T03:55:55.463Z,17.34
2022-07-30T03:58:21.746Z,17.04
2022-07-30T04:00:49.524Z,17.07
2022-07-30T04:03:26.527Z,17.09
2022-07-30T04:05:52.949Z,17.03
2022-07-30T04:08:19.060Z,17.14
2022-07-30T04:10:48.443Z,17.14
2022-07-30T04:13:14.409Z,17.21
2022-07-30T04:16:38.793Z,17.22
2022-07-30T04:18:47.884Z,17.08
2022-07-30T04:21:17.545Z,17.01
2022-07-30T04:24:02.187Z,17.12
2022-07-30T04:26:33.117Z,17.17
2022-07-30T04:29:00.202Z,17.15
2022-07-30T04:31:27.580Z,17.26
2022-07-30T04:33:53.445Z,17.22
2022-07-30T04:36:19.229Z,17.18
2022-07-30T04:38:45.087Z,17.26
2022-07-30T04:41:11.479Z,17.22
2022-07-30T04:43:38.461Z,17.25
2022-07-30T04:46:04.421Z,17.33
2022-07-30T04:48:30.301Z,17.21
2022-07-30T04:51:00.991Z,17.16
2022-07-30T04:53:28.935Z,17.17
2022-07-30T04:55:56.574Z,17.17
2022-07-30T04:58:23.693Z,17.28
2022-07-30T05:00:51.519Z,17.27
2022-07-30T05:03:18.384Z,17.33
2022-07-30T05:05:45.786Z,17.36
2022-07-30T05:08:12.285Z,17.23
2022-07-30T05:10:38.235Z,17.05
2022-07-30T05:13:04.129Z,17.07
2022-07-30T05:15:36.234Z,17.11
2022-07-30T05:18:03.579Z,17.18
2022-07-30T05:20:29.381Z,17.18
2022-07-30T05:22:55.219Z,17.30
2022-07-30T05:25:21.000Z,17.39
2022-07-30T05:27:46.827Z,17.40
2022-07-30T05:30:12.949Z,17.43
2022-07-30T05:32:38.920Z,17.54
2022-07-30T05:35:05.055Z,17.45
2022-07-30T05:37:32.324Z,17.60
2022-07-30T05:40:03.443Z,17.65
2022-07-30T05:42:29.599Z,17.50
2022-07-30T05:44:56.240Z,17.46
2022-07-30T05:47:22.634Z,17.44
2022-07-30T05:49:48.663Z,17.28
2022-07-30T05:52:14.889Z,17.35
2022-07-30T05:54:41.025Z,17.52
2022-07-30T05:57:06.815Z,17.33
2022-07-30T05:59:32.668Z,17.42
2022-07-30T06:01:59.998Z,17.57
2022-07-30T06:04:25.890Z,17.67
2022-07-30T06:06:51.832Z,17.51
2022-07-30T06:09:17.625Z,17.49
2022-07-30T06:11:52.439Z,17.55
2022-07-30T06:14:23.378Z,17.58
2022-07-30T06:16:49.413Z,17.64
2022-07-30T06:19:19.659Z,17.56
2022-07-30T06:22:05.763Z,17.74
2022-07-30T06:24:31.524Z,17.78
2022-07-30T06:26:57.587Z,17.85
2022-07-30T06:29:23.525Z,17.86
2022-07-30T06:31:49.433Z,17.75
2022-07-30T06:34:15.244Z,17.73
2022-07-30T06:36:41.090Z,17.83
2022-07-30T06:39:07.204Z,17.74
2022-07-30T06:41:33.054Z,17.72
2022-07-30T06:43:58.856Z,17.80
2022-07-30T06:46:24.762Z,17.78
2022-07-30T06:48:51.052Z,17.84
2022-07-30T06:51:16.887Z,17.84
2022-07-30T06:53:45.076Z,17.92
2022-07-30T06:56:11.738Z,17.94
2022-07-30T06:58:38.500Z,18.19
2022-07-30T07:01:05.000Z,18.16
2022-07-30T07:03:40.218Z,18.23
2022-07-30T07:06:06.425Z,18.31
2022-07-30T07:08:35.563Z,18.31
2022-07-30T07:11:01.449Z,18.43
2022-07-30T07:13:27.285Z,18.27
2022-07-30T07:15:53.131Z,18.38
2022-07-30T07:18:19.010Z,18.50
2022-07-30T07:20:46.001Z,18.59
2022-07-30T07:23:12.631Z,18.52
2022-07-30T07:25:40.396Z,18.53
2022-07-30T07:28:11.809Z,18.58
2022-07-30T07:30:38.992Z,18.43
2022-07-30T07:33:04.919Z,18.35
2022-07-30T07:35:31.064Z,18.35
2022-07-30T07:37:56.850Z,18.22
2022-07-30T07:40:22.846Z,18.38
2022-07-30T07:42:50.524Z,18.56
2022-07-30T07:45:16.424Z,18.61
2022-07-30T07:47:49.178Z,18.60
2022-07-30T07:50:19.320Z,18.82
2022-07-30T07:52:45.142Z,18.94
2022-07-30T07:55:11.020Z,18.92
2022-07-30T07:57:41.595Z,18.85
2022-07-30T08:00:09.633Z,18.92
2022-07-30T08:02:35.973Z,19.00
2022-07-30T08:05:06.589Z,19.06
2022-07-30T08:07:32.998Z,18.89
2022-07-30T08:09:59.153Z,18.99
2022-07-30T08:12:25.719Z,19.19
2022-07-30T08:14:52.133Z,19.22
2022-07-30T08:17:19.053Z,19.13
2022-07-30T08:19:47.133Z,19.16
2022-07-30T08:22:13.097Z,19.17
2022-07-30T08:24:39.192Z,19.44
2022-07-30T08:27:05.358Z,19.29
2022-07-30T08:29:31.634Z,19.34
2022-07-30T08:31:57.555Z,19.29
2022-07-30T08:34:25.835Z,19.54
2022-07-30T08:36:51.840Z,19.62
2022-07-30T08:39:17.717Z,19.42
2022-07-30T08:41:44.368Z,19.41
2022-07-30T08:44:11.818Z,19.66
2022-07-30T08:46:41.809Z,19.67
2022-07-30T08:49:13.590Z,19.65
2022-07-30T08:51:39.709Z,19.88
2022-07-30T08:54:05.988Z,19.80
2022-07-30T08:56:33.432Z,20.08
2022-07-30T08:59:00.444Z,20.34
2022-07-30T09:01:26.999Z,20.48
2022-07-30T09:03:54.050Z,20.33
2022-07-30T09:06:20.023Z,20.36
2022-07-30T09:08:45.927Z,20.48
2022-07-30T09:11:12.001Z,20.61
2022-07-30T09:13:43.728Z,20.58
2022-07-30T09:16:24.482Z,20.65
2022-07-30T09:18:52.085Z,20.73
2022-07-30T09:21:26.072Z,20.68
2022-07-30T09:23:56.886Z,20.64
2022-07-30T09:26:22.843Z,20.48
2022-07-30T09:28:48.822Z,20.45
2022-07-30T09:31:17.182Z,20.53
2022-07-30T09:33:44.799Z,20.78
2022-07-30T09:36:16.255Z,20.51
2022-07-30T09:38:51.972Z,20.48
2022-07-30T09:41:38.704Z,20.71
2022-07-30T09:44:05.675Z,21.01
2022-07-30T09:46:46.568Z,21.04
2022-07-30T09:49:17.091Z,21.20
2022-07-30T09:51:56.359Z,21.07
2022-07-30T09:54:25.338Z,21.10
2022-07-30T09:57:23.246Z,20.99
2022-07-30T09:59:53.048Z,21.28
2022-07-30T10:02:18.979Z,21.67
2022-07-30T10:04:46.277Z,21.36
2022-07-30T10:07:25.381Z,21.27
2022-07-30T10:09:53.406Z,20.80
2022-07-30T10:12:20.656Z,21.04
2022-07-30T10:14:53.481Z,21.38
2022-07-30T10:17:21.441Z,21.76
2022-07-30T10:19:47.712Z,22.11
2022-07-30T10:22:17.009Z,22.20
2022-07-30T10:24:45.069Z,21.87
2022-07-30T10:27:11.350Z,22.47
2022-07-30T10:29:42.848Z,22.65
2022-07-30T10:32:09.450Z,23.06
2022-07-30T10:34:37.437Z,23.40
2022-07-30T10:37:10.838Z,23.22
2022-07-30T10:39:54.311Z,22.72
2022-07-30T10:42:29.196Z,22.34
2022-07-30T10:45:27.370Z,22.07
2022-07-30T10:47:55.403Z,21.99
2022-07-30T10:50:26.437Z,22.68
2022-07-30T10:52:53.767Z,23.42
2022-07-30T10:55:37.298Z,23.29
2022-07-30T10:58:10.320Z,22.75
2022-07-30T11:00:56.670Z,23.15
2022-07-30T11:03:40.966Z,23.72
2022-07-30T11:06:16.463Z,24.05
2022-07-30T11:08:50.770Z,23.91
2022-07-30T11:11:20.416Z,24.37
2022-07-30T11:13:56.517Z,24.73
2022-07-30T11:16:32.276Z,25.07
2022-07-30T11:19:19.433Z,25.22
2022-07-30T11:21:49.543Z,25.09
2022-07-30T11:24:46.465Z,25.65
2022-07-30T11:27:41.668Z,26.07
2022-07-30T11:30:28.456Z,25.43
2022-07-30T11:33:03.395Z,24.87
2022-07-30T11:35:34.525Z,25.36
2022-07-30T11:38:08.736Z,25.89
2022-07-30T11:41:00.828Z,25.24
2022-07-30T11:43:34.944Z,23.96
2022-07-30T11:46:10.876Z,22.59
2022-07-30T11:48:53.613Z,23.53
2022-07-30T11:51:20.434Z,24.21
2022-07-30T11:54:10.031Z,24.36
2022-07-30T11:56:36.439Z,24.15
2022-07-30T11:59:05.081Z,24.47
2022-07-30T12:01:32.687Z,24.84
2022-07-30T12:04:02.379Z,25.39
2022-07-30T12:06:31.193Z,25.97
2022-07-30T12:08:58.869Z,25.66
2022-07-30T12:11:31.802Z,25.59
2022-07-30T12:13:59.337Z,25.83
2022-07-30T12:16:26.388Z,25.84
2022-07-30T12:18:52.563Z,25.94
2022-07-30T12:21:20.417Z,25.69
2022-07-30T12:23:57.571Z,25.59
2022-07-30T12:26:29.044Z,26.05
2022-07-30T12:29:00.942Z,25.84
2022-07-30T12:31:27.417Z,25.99
2022-07-30T12:33:55.601Z,26.25
2022-07-30T12:36:33.147Z,26.46
2022-07-30T12:38:59.626Z,25.69
2022-07-30T12:41:42.496Z,25.67
2022-07-30T12:44:09.276Z,26.00
2022-07-30T12:46:41.126Z,25.72
2022-07-30T12:49:16.070Z,25.23
2022-07-30T12:52:00.037Z,24.79
2022-07-30T12:54:26.788Z,24.64
2022-07-30T12:56:57.410Z,24.63
2022-07-30T12:59:23.881Z,24.72
2022-07-30T13:01:51.614Z,24.76
2022-07-30T13:04:17.470Z,25.22
2022-07-30T13:06:43.438Z,25.11
2022-07-30T13:09:20.293Z,25.63
2022-07-30T13:11:48.706Z,25.07
2022-07-30T13:14:16.487Z,25.24
2022-07-30T13:16:42.634Z,25.60
2022-07-30T13:19:11.002Z,25.83
2022-07-30T13:21:38.198Z,25.92
2022-07-30T13:24:04.442Z,25.84
2022-07-30T13:26:30.938Z,26.48
2022-07-30T13:29:01.542Z,26.83
2022-07-30T13:31:27.856Z,27.07
2022-07-30T13:34:08.677Z,26.39
2022-07-30T13:36:34.522Z,26.15
2022-07-30T13:39:00.368Z,25.62
2022-07-30T13:41:26.267Z,26.13
2022-07-30T13:43:52.152Z,26.42
2022-07-30T13:46:17.995Z,26.52
2022-07-30T13:48:44.128Z,26.48
2022-07-30T13:51:10.072Z,26.73
2022-07-30T13:53:35.976Z,26.75
2022-07-30T13:56:02.776Z,26.75
2022-07-30T13:58:31.814Z,26.45
2022-07-30T14:01:01.537Z,25.93
2022-07-30T14:03:27.452Z,25.87
2022-07-30T14:05:53.697Z,25.69
2022-07-30T14:08:19.689Z,25.69
2022-07-30T14:10:45.470Z,25.60
2022-07-30T14:13:19.418Z,25.62
2022-07-30T14:15:47.807Z,25.31
2022-07-30T14:18:13.639Z,25.41
2022-07-30T14:20:39.727Z,25.73
2022-07-30T14:23:05.577Z,25.85
2022-07-30T14:25:31.500Z,25.85
2022-07-30T14:27:57.353Z,26.04
2022-07-30T14:30:23.970Z,26.36
2022-07-30T14:32:52.616Z,26.96
2022-07-30T14:35:23.293Z,27.23
2022-07-30T14:37:49.112Z,27.20
2022-07-30T14:40:15.040Z,26.74
2022-07-30T14:42:41.865Z,26.87
2022-07-30T14:45:09.200Z,26.61
2022-07-30T14:47:35.564Z,26.23
2022-07-30T14:50:02.652Z,26.55
2022-07-30T14:52:28.576Z,26.81
2022-07-30T14:54:54.420Z,27.10
2022-07-30T14:57:20.329Z,27.18
2022-07-30T14:59:46.252Z,27.06
2022-07-30T15:02:12.295Z,27.10
2022-07-30T15:04:38.213Z,27.12
2022-07-30T15:07:04.036Z,27.23
2022-07-30T15:09:33.415Z,27.20
2022-07-30T15:12:08.504Z,27.61
2022-07-30T15:14:39.969Z,27.80
2022-07-30T15:17:06.543Z,28.02
2022-07-30T15:19:32.498Z,28.14
2022-07-30T15:22:01.185Z,26.95
2022-07-30T15:24:27.765Z,26.47
2022-07-30T15:26:55.613Z,26.59
2022-07-30T15:29:23.367Z,26.75
2022-07-30T15:31:50.268Z,27.04
2022-07-30T15:34:18.733Z,26.13
2022-07-30T15:36:44.873Z,26.27
2022-07-30T15:39:10.718Z,26.63
2022-07-30T15:41:37.118Z,26.71
2022-07-30T15:44:03.366Z,27.13
2022-07-30T15:46:29.402Z,27.05
2022-07-30T15:48:55.705Z,26.97
2022-07-30T15:51:21.656Z,27.14
2022-07-30T15:53:47.980Z,27.52
2022-07-30T15:56:15.120Z,27.47
2022-07-30T15:58:43.572Z,27.23
2022-07-30T16:01:09.690Z,27.16
2022-07-30T16:03:35.561Z,27.41
2022-07-30T16:06:01.418Z,27.14
2022-07-30T16:08:27.281Z,27.51
2022-07-30T16:10:53.069Z,27.28
2022-07-30T16:13:18.949Z,27.01
2022-07-30T16:15:44.865Z,26.91
2022-07-30T16:18:10.681Z,26.64
2022-07-30T16:20:36.599Z,26.41
2022-07-30T16:23:02.515Z,26.86
2022-07-30T16:25:28.343Z,26.99
2022-07-30T16:27:54.211Z,27.08
2022-07-30T16:30:20.244Z,27.09
2022-07-30T16:32:46.163Z,27.32
2022-07-30T16:35:13.466Z,27.07
2022-07-30T16:37:39.941Z,27.35
2022-07-30T16:40:06.161Z,27.28
2022-07-30T16:42:32.035Z,26.82
2022-07-30T16:44:57.884Z,26.59
2022-07-30T16:47:23.704Z,26.83
2022-07-30T16:49:49.506Z,26.41
2022-07-30T16:52:17.294Z,25.72
2022-07-30T16:54:43.262Z,25.57
2022-07-30T16:57:10.763Z,25.54
2022-07-30T16:59:37.199Z,25.94
2022-07-30T17:02:03.992Z,25.56
2022-07-30T17:04:30.029Z,25.30
2022-07-30T17:06:55.886Z,25.22
2022-07-30T17:09:24.522Z,25.09
2022-07-30T17:11:52.263Z,24.64
2022-07-30T17:14:21.452Z,24.69
2022-07-30T17:16:47.261Z,24.71
2022-07-30T17:19:13.176Z,24.73
2022-07-30T17:21:39.066Z,24.72
2022-07-30T17:24:10.290Z,24.79
2022-07-30T17:26:38.901Z,24.98
2022-07-30T17:29:05.007Z,25.13
2022-07-30T17:31:30.861Z,25.07
2022-07-30T17:33:56.702Z,24.99
2022-07-30T17:36:22.869Z,25.03
2022-07-30T17:38:48.722Z,25.07
2022-07-30T17:41:14.525Z,25.37
2022-07-30T17:43:40.514Z,25.53
2022-07-30T17:46:06.427Z,25.61
2022-07-30T17:48:32.340Z,25.26
2022-07-30T17:50:58.265Z,24.99
2022-07-30T17:53:27.892Z,24.59
2022-07-30T17:55:57.945Z,24.46
2022-07-30T17:58:24.429Z,24.38
2022-07-30T18:00:50.419Z,24.00
2022-07-30T18:03:16.438Z,23.69
2022-07-30T18:05:42.296Z,23.65
2022-07-30T18:08:08.112Z,23.70
2022-07-30T18:10:33.979Z,23.55
2022-07-30T18:12:59.777Z,23.41
2022-07-30T18:15:45.622Z,23.39
2022-07-30T18:18:11.490Z,23.40
2022-07-30T18:20:37.417Z,23.36
2022-07-30T18:23:18.203Z,23.23
2022-07-30T18:25:52.952Z,23.29
2022-07-30T18:28:19.303Z,23.25
2022-07-30T18:30:45.418Z,23.17
2022-07-30T18:33:11.278Z,23.21
2022-07-30T18:35:37.353Z,23.11
2022-07-30T18:38:03.237Z,22.86
2022-07-30T18:40:29.151Z,22.89
2022-07-30T18:42:54.972Z,22.82
2022-07-30T18:45:21.999Z,22.88
2022-07-30T18:47:48.392Z,22.87
2022-07-30T18:50:15.304Z,22.73
2022-07-30T18:52:41.457Z,22.64
2022-07-30T18:55:10.505Z,22.71
2022-07-30T18:57:36.600Z,22.82
2022-07-30T19:00:05.880Z,22.80
2022-07-30T19:02:31.730Z,22.74
2022-07-30T19:04:58.216Z,22.65
2022-07-30T19:07:24.239Z,22.50
2022-07-30T19:09:54.466Z,22.50
2022-07-30T19:12:21.353Z,22.36
2022-07-30T19:14:47.620Z,22.23
2022-07-30T19:17:15.473Z,22.25
2022-07-30T19:19:41.612Z,22.28
2022-07-30T19:22:07.573Z,22.34
2022-07-30T19:24:33.388Z,22.29
2022-07-30T19:26:59.256Z,22.34
2022-07-30T19:29:25.155Z,22.38
2022-07-30T19:31:50.998Z,22.35
2022-07-30T19:34:16.841Z,22.26
2022-07-30T19:36:42.694Z,22.17
2022-07-30T19:39:12.125Z,22.10
2022-07-30T19:41:42.026Z,21.93
2022-07-30T19:44:09.143Z,22.00
2022-07-30T19:46:35.487Z,22.05
2022-07-30T19:49:01.967Z,22.11
2022-07-30T19:52:09.798Z,22.17
2022-07-30T19:54:15.389Z,22.18
2022-07-30T19:56:41.296Z,22.10
2022-07-30T19:59:14.875Z,22.17
2022-07-30T20:01:42.329Z,22.14
2022-07-30T20:04:08.200Z,22.13
2022-07-30T20:06:34.374Z,22.05
2022-07-30T20:09:00.310Z,22.00
2022-07-30T20:11:36.156Z,22.02
2022-07-30T20:14:03.180Z,21.93
2022-07-30T20:16:29.029Z,22.01
2022-07-30T20:18:54.911Z,21.97
2022-07-30T20:21:20.835Z,21.89
2022-07-30T20:24:06.895Z,21.97
2022-07-30T20:26:33.081Z,21.85
2022-07-30T20:28:59.540Z,21.89
2022-07-30T20:31:26.549Z,21.85
2022-07-30T20:33:53.863Z,21.82
2022-07-30T20:36:21.547Z,21.84
2022-07-30T20:38:48.513Z,21.80
2022-07-30T20:41:15.036Z,21.74
2022-07-30T20:43:51.544Z,21.72
2022-07-30T20:46:17.689Z,21.75
2022-07-30T20:48:45.066Z,21.73
2022-07-30T20:51:11.012Z,21.74
2022-07-30T20:53:37.097Z,21.65
2022-07-30T20:56:03.206Z,21.67
2022-07-30T20:58:29.092Z,21.65
2022-07-30T21:00:55.420Z,21.70
2022-07-30T21:03:21.805Z,21.63
2022-07-30T21:05:52.632Z,21.57
2022-07-30T21:08:19.030Z,21.60
2022-07-30T21:10:46.139Z,21.66
2022-07-30T21:13:12.191Z,21.68
2022-07-30T21:18:23.899Z,21.59
2022-07-30T21:20:49.749Z,21.67
2022-07-30T21:23:21.445Z,21.60
2022-07-30T21:28:35.172Z,21.63
2022-07-30T21:31:02.574Z,21.60
2022-07-30T21:33:31.142Z,21.47
2022-07-30T21:35:57.308Z,21.52
2022-07-30T21:38:25.665Z,21.45
2022-07-30T21:40:51.510Z,21.44
2022-07-30T21:43:17.367Z,21.52
2022-07-30T21:45:55.709Z,21.50
2022-07-30T21:48:21.587Z,21.37
2022-07-30T21:50:47.502Z,21.40
2022-07-30T21:53:14.279Z,21.37
2022-07-30T21:55:52.366Z,21.35
2022-07-30T21:58:25.812Z,21.17
2022-07-30T22:00:54.294Z,21.18
2022-07-30T22:04:00.603Z,21.30
2022-07-30T22:06:12.426Z,21.26
2022-07-30T22:08:38.832Z,21.24
2022-07-30T22:11:08.877Z,21.16
2022-07-30T22:13:35.405Z,21.23
2022-07-30T22:16:17.507Z,21.12
2022-07-30T22:18:44.885Z,21.13
2022-07-30T22:21:10.660Z,21.03
2022-07-30T22:23:40.397Z,21.08
2022-07-30T22:26:23.569Z,21.07
2022-07-30T22:28:52.696Z,20.96
2022-07-30T22:31:20.538Z,21.00
2022-07-30T22:33:46.417Z,21.04
2022-07-30T22:36:15.714Z,20.96
2022-07-30T22:38:41.739Z,20.93
2022-07-30T22:41:10.955Z,20.82
2022-07-30T22:43:41.107Z,20.99
2022-07-30T22:46:19.012Z,20.49
2022-07-30T22:48:53.487Z,20.42
2022-07-30T22:51:19.429Z,20.49
2022-07-30T22:54:10.377Z,20.53
2022-07-30T22:56:32.393Z,20.36
2022-07-30T22:58:58.273Z,20.24
2022-07-30T23:01:24.408Z,20.32
2022-07-30T23:03:50.321Z,20.27
2022-07-30T23:06:16.306Z,20.42
2022-07-30T23:08:42.339Z,20.23
2022-07-30T23:11:08.454Z,20.22
2022-07-30T23:12:26.972Z,21.65
2022-07-30T23:12:33.096Z,21.67
2022-07-30T23:13:37.809Z,20.28
2022-07-30T23:16:04.947Z,20.25
2022-07-30T23:18:30.842Z,20.15
2022-07-30T23:21:00.257Z,20.24
2022-07-30T23:23:27.969Z,20.43
2022-07-30T23:25:56.857Z,20.28
2022-07-30T23:28:23.683Z,20.32
2022-07-30T23:30:49.668Z,20.36
2022-07-30T23:33:18.498Z,20.29
2022-07-30T23:35:44.591Z,20.40
2022-07-30T23:38:10.431Z,20.26
2022-07-30T23:40:36.204Z,20.31
2022-07-30T23:43:02.048Z,20.19
2022-07-30T23:45:27.956Z,20.10
2022-07-30T23:48:02.399Z,20.08
2022-07-30T23:50:33.350Z,19.79
2022-07-30T23:53:00.804Z,19.93
2022-07-30T23:55:27.402Z,20.02
2022-07-30T23:57:53.590Z,19.89
